sensor_id;sensor_type;location;lat;lon;timestamp;P1;durP1;ratioP1;P2;durP2;ratioP2
34783;SDS011;20998;51.388;7.032;2024-02-15T00:01:44;8.27;;;4.37;;
34783;SDS011;20998;51.388;7.032;2024-02-15T00:04:10;4.13;;;3.10;;
34783;SDS011;20998;51.388;7.032;2024-02-15T00:06:36;5.77;;;3.50;;
34783;SDS011;20998;51.388;7.032;2024-02-15T00:09:02;6.77;;;3.80;;
34783;SDS011;20998;51.388;7.032;2024-02-15T00:11:28;6.83;;;2.77;;
34783;SDS011;20998;51.388;7.032;2024-02-15T00:13:54;8.73;;;3.13;;
34783;SDS011;20998;51.388;7.032;2024-02-15T00:16:21;5.10;;;4.00;;
34783;SDS011;20998;51.388;7.032;2024-02-15T00:18:47;7.90;;;3.73;;
34783;SDS011;20998;51.388;7.032;2024-02-15T00:21:14;5.03;;;2.67;;
34783;SDS011;20998;51.388;7.032;2024-02-15T00:23:43;6.77;;;3.97;;
34783;SDS011;20998;51.388;7.032;2024-02-15T00:26:09;4.67;;;3.47;;
34783;SDS011;20998;51.388;7.032;2024-02-15T00:28:36;8.07;;;4.23;;
34783;SDS011;20998;51.388;7.032;2024-02-15T00:31:02;5.77;;;3.50;;
34783;SDS011;20998;51.388;7.032;2024-02-15T00:33:28;5.80;;;4.17;;
34783;SDS011;20998;51.388;7.032;2024-02-15T00:35:54;6.07;;;3.37;;
34783;SDS011;20998;51.388;7.032;2024-02-15T00:38:20;11.20;;;4.37;;
34783;SDS011;20998;51.388;7.032;2024-02-15T00:40:46;7.97;;;5.27;;
34783;SDS011;20998;51.388;7.032;2024-02-15T00:43:12;8.50;;;4.17;;
34783;SDS011;20998;51.388;7.032;2024-02-15T00:45:39;11.17;;;4.80;;
34783;SDS011;20998;51.388;7.032;2024-02-15T00:48:05;7.00;;;3.17;;
34783;SDS011;20998;51.388;7.032;2024-02-15T00:50:31;4.57;;;3.23;;
34783;SDS011;20998;51.388;7.032;2024-02-15T00:52:57;9.47;;;3.50;;
34783;SDS011;20998;51.388;7.032;2024-02-15T00:55:23;12.57;;;3.40;;
34783;SDS011;20998;51.388;7.032;2024-02-15T00:57:49;7.93;;;4.37;;
34783;SDS011;20998;51.388;7.032;2024-02-15T01:00:15;6.63;;;4.70;;
34783;SDS011;20998;51.388;7.032;2024-02-15T01:02:41;6.73;;;4.27;;
34783;SDS011;20998;51.388;7.032;2024-02-15T01:05:07;8.57;;;4.03;;
34783;SDS011;20998;51.388;7.032;2024-02-15T01:07:34;7.23;;;3.93;;
34783;SDS011;20998;51.388;7.032;2024-02-15T01:10:01;6.30;;;4.30;;
34783;SDS011;20998;51.388;7.032;2024-02-15T01:12:28;10.87;;;5.07;;
34783;SDS011;20998;51.388;7.032;2024-02-15T01:14:54;5.20;;;3.83;;
34783;SDS011;20998;51.388;7.032;2024-02-15T01:17:21;7.00;;;3.83;;
34783;SDS011;20998;51.388;7.032;2024-02-15T01:19:47;14.20;;;4.77;;
34783;SDS011;20998;51.388;7.032;2024-02-15T01:22:13;10.03;;;4.27;;
34783;SDS011;20998;51.388;7.032;2024-02-15T01:24:38;6.20;;;3.30;;
34783;SDS011;20998;51.388;7.032;2024-02-15T01:27:04;11.37;;;4.90;;
34783;SDS011;20998;51.388;7.032;2024-02-15T01:29:32;9.43;;;3.67;;
34783;SDS011;20998;51.388;7.032;2024-02-15T01:31:58;11.67;;;3.43;;
34783;SDS011;20998;51.388;7.032;2024-02-15T01:34:24;4.50;;;3.50;;
34783;SDS011;20998;51.388;7.032;2024-02-15T01:36:50;5.67;;;3.87;;
34783;SDS011;20998;51.388;7.032;2024-02-15T01:39:16;10.20;;;4.20;;
34783;SDS011;20998;51.388;7.032;2024-02-15T01:41:48;17.43;;;3.33;;
34783;SDS011;20998;51.388;7.032;2024-02-15T01:44:16;6.50;;;4.00;;
34783;SDS011;20998;51.388;7.032;2024-02-15T01:46:43;7.90;;;4.20;;
34783;SDS011;20998;51.388;7.032;2024-02-15T01:49:11;7.13;;;4.20;;
34783;SDS011;20998;51.388;7.032;2024-02-15T01:51:37;6.13;;;3.47;;
34783;SDS011;20998;51.388;7.032;2024-02-15T01:54:03;6.53;;;3.73;;
34783;SDS011;20998;51.388;7.032;2024-02-15T01:56:30;5.80;;;3.10;;
34783;SDS011;20998;51.388;7.032;2024-02-15T01:58:57;2.80;;;2.50;;
34783;SDS011;20998;51.388;7.032;2024-02-15T02:01:23;4.83;;;2.90;;
34783;SDS011;20998;51.388;7.032;2024-02-15T02:03:49;5.33;;;2.90;;
34783;SDS011;20998;51.388;7.032;2024-02-15T02:06:15;4.70;;;2.60;;
34783;SDS011;20998;51.388;7.032;2024-02-15T02:08:41;7.83;;;3.00;;
34783;SDS011;20998;51.388;7.032;2024-02-15T02:11:07;9.53;;;3.30;;
34783;SDS011;20998;51.388;7.032;2024-02-15T02:13:33;11.67;;;3.23;;
34783;SDS011;20998;51.388;7.032;2024-02-15T02:15:59;5.10;;;2.83;;
34783;SDS011;20998;51.388;7.032;2024-02-15T02:18:25;5.97;;;3.07;;
34783;SDS011;20998;51.388;7.032;2024-02-15T02:20:51;9.67;;;2.67;;
34783;SDS011;20998;51.388;7.032;2024-02-15T02:23:19;12.70;;;3.03;;
34783;SDS011;20998;51.388;7.032;2024-02-15T02:25:48;12.77;;;3.57;;
34783;SDS011;20998;51.388;7.032;2024-02-15T02:28:14;15.53;;;2.90;;
34783;SDS011;20998;51.388;7.032;2024-02-15T02:30:43;4.10;;;2.53;;
34783;SDS011;20998;51.388;7.032;2024-02-15T02:33:11;3.80;;;2.50;;
34783;SDS011;20998;51.388;7.032;2024-02-15T02:35:43;5.63;;;3.10;;
34783;SDS011;20998;51.388;7.032;2024-02-15T02:38:09;8.13;;;3.37;;
34783;SDS011;20998;51.388;7.032;2024-02-15T02:40:35;4.27;;;2.63;;
34783;SDS011;20998;51.388;7.032;2024-02-15T02:43:01;9.23;;;3.80;;
34783;SDS011;20998;51.388;7.032;2024-02-15T02:45:27;10.63;;;3.00;;
34783;SDS011;20998;51.388;7.032;2024-02-15T02:47:54;8.33;;;3.60;;
34783;SDS011;20998;51.388;7.032;2024-02-15T02:50:22;4.43;;;2.70;;
34783;SDS011;20998;51.388;7.032;2024-02-15T02:52:48;14.30;;;3.37;;
34783;SDS011;20998;51.388;7.032;2024-02-15T02:55:14;4.00;;;2.90;;
34783;SDS011;20998;51.388;7.032;2024-02-15T02:57:40;8.63;;;3.20;;
34783;SDS011;20998;51.388;7.032;2024-02-15T03:00:07;5.70;;;3.27;;
34783;SDS011;20998;51.388;7.032;2024-02-15T03:02:41;5.50;;;2.57;;
34783;SDS011;20998;51.388;7.032;2024-02-15T03:05:08;12.67;;;3.43;;
34783;SDS011;20998;51.388;7.032;2024-02-15T03:07:35;9.50;;;3.23;;
34783;SDS011;20998;51.388;7.032;2024-02-15T03:10:02;3.70;;;2.27;;
34783;SDS011;20998;51.388;7.032;2024-02-15T03:12:33;8.20;;;3.30;;
34783;SDS011;20998;51.388;7.032;2024-02-15T03:15:00;9.43;;;2.73;;
34783;SDS011;20998;51.388;7.032;2024-02-15T03:17:27;7.60;;;3.23;;
34783;SDS011;20998;51.388;7.032;2024-02-15T03:19:53;5.47;;;3.20;;
34783;SDS011;20998;51.388;7.032;2024-02-15T03:22:19;9.67;;;3.87;;
34783;SDS011;20998;51.388;7.032;2024-02-15T03:24:45;9.93;;;2.97;;
34783;SDS011;20998;51.388;7.032;2024-02-15T03:27:11;9.77;;;3.33;;
34783;SDS011;20998;51.388;7.032;2024-02-15T03:29:37;6.40;;;2.80;;
34783;SDS011;20998;51.388;7.032;2024-02-15T03:32:03;3.17;;;1.93;;
34783;SDS011;20998;51.388;7.032;2024-02-15T03:34:30;6.83;;;3.27;;
34783;SDS011;20998;51.388;7.032;2024-02-15T03:36:56;4.93;;;3.37;;
34783;SDS011;20998;51.388;7.032;2024-02-15T03:39:23;10.20;;;2.63;;
34783;SDS011;20998;51.388;7.032;2024-02-15T03:41:49;5.77;;;2.93;;
34783;SDS011;20998;51.388;7.032;2024-02-15T03:44:18;4.27;;;2.90;;
34783;SDS011;20998;51.388;7.032;2024-02-15T03:46:44;5.07;;;3.17;;
34783;SDS011;20998;51.388;7.032;2024-02-15T03:49:16;6.57;;;2.60;;
34783;SDS011;20998;51.388;7.032;2024-02-15T03:51:42;2.83;;;2.07;;
34783;SDS011;20998;51.388;7.032;2024-02-15T03:54:09;3.80;;;1.97;;
34783;SDS011;20998;51.388;7.032;2024-02-15T03:56:35;6.13;;;2.63;;
34783;SDS011;20998;51.388;7.032;2024-02-15T03:59:02;5.57;;;2.53;;
34783;SDS011;20998;51.388;7.032;2024-02-15T04:01:29;9.03;;;2.10;;
34783;SDS011;20998;51.388;7.032;2024-02-15T04:03:59;3.00;;;2.20;;
34783;SDS011;20998;51.388;7.032;2024-02-15T04:06:27;8.87;;;2.93;;
34783;SDS011;20998;51.388;7.032;2024-02-15T04:08:55;6.27;;;3.20;;
34783;SDS011;20998;51.388;7.032;2024-02-15T04:11:21;5.43;;;2.80;;
34783;SDS011;20998;51.388;7.032;2024-02-15T04:13:47;7.67;;;2.77;;
34783;SDS011;20998;51.388;7.032;2024-02-15T04:16:13;8.20;;;2.60;;
34783;SDS011;20998;51.388;7.032;2024-02-15T04:18:39;10.30;;;1.93;;
34783;SDS011;20998;51.388;7.032;2024-02-15T04:21:07;14.57;;;2.93;;
34783;SDS011;20998;51.388;7.032;2024-02-15T04:23:33;4.63;;;2.50;;
34783;SDS011;20998;51.388;7.032;2024-02-15T04:25:59;3.23;;;2.23;;
34783;SDS011;20998;51.388;7.032;2024-02-15T04:28:25;10.10;;;2.33;;
34783;SDS011;20998;51.388;7.032;2024-02-15T04:30:52;1.73;;;1.57;;
34783;SDS011;20998;51.388;7.032;2024-02-15T04:33:19;1.97;;;1.57;;
34783;SDS011;20998;51.388;7.032;2024-02-15T04:35:44;4.97;;;2.83;;
34783;SDS011;20998;51.388;7.032;2024-02-15T04:38:11;2.33;;;1.70;;
34783;SDS011;20998;51.388;7.032;2024-02-15T04:40:37;2.37;;;2.13;;
34783;SDS011;20998;51.388;7.032;2024-02-15T04:43:04;7.40;;;1.67;;
34783;SDS011;20998;51.388;7.032;2024-02-15T04:45:31;4.67;;;2.10;;
34783;SDS011;20998;51.388;7.032;2024-02-15T04:47:57;4.77;;;1.60;;
34783;SDS011;20998;51.388;7.032;2024-02-15T04:50:27;8.23;;;1.50;;
34783;SDS011;20998;51.388;7.032;2024-02-15T04:52:53;3.07;;;1.53;;
34783;SDS011;20998;51.388;7.032;2024-02-15T04:55:18;4.80;;;1.73;;
34783;SDS011;20998;51.388;7.032;2024-02-15T04:57:45;4.20;;;1.60;;
34783;SDS011;20998;51.388;7.032;2024-02-15T05:00:13;2.60;;;1.40;;
34783;SDS011;20998;51.388;7.032;2024-02-15T05:02:40;2.10;;;1.47;;
34783;SDS011;20998;51.388;7.032;2024-02-15T05:05:09;1.97;;;1.37;;
34783;SDS011;20998;51.388;7.032;2024-02-15T05:07:37;1.50;;;1.20;;
34783;SDS011;20998;51.388;7.032;2024-02-15T05:10:04;4.17;;;1.60;;
34783;SDS011;20998;51.388;7.032;2024-02-15T05:12:32;2.33;;;1.63;;
34783;SDS011;20998;51.388;7.032;2024-02-15T05:15:01;2.43;;;1.43;;
34783;SDS011;20998;51.388;7.032;2024-02-15T05:17:27;1.27;;;1.13;;
34783;SDS011;20998;51.388;7.032;2024-02-15T05:19:56;3.40;;;1.50;;
34783;SDS011;20998;51.388;7.032;2024-02-15T05:22:25;7.93;;;1.40;;
34783;SDS011;20998;51.388;7.032;2024-02-15T05:24:55;6.40;;;1.70;;
34783;SDS011;20998;51.388;7.032;2024-02-15T05:27:21;1.30;;;1.00;;
34783;SDS011;20998;51.388;7.032;2024-02-15T05:29:48;2.93;;;1.00;;
34783;SDS011;20998;51.388;7.032;2024-02-15T05:32:17;4.03;;;1.60;;
34783;SDS011;20998;51.388;7.032;2024-02-15T05:34:45;1.73;;;1.33;;
34783;SDS011;20998;51.388;7.032;2024-02-15T05:37:10;6.33;;;1.73;;
34783;SDS011;20998;51.388;7.032;2024-02-15T05:39:37;2.27;;;1.37;;
34783;SDS011;20998;51.388;7.032;2024-02-15T05:42:04;2.30;;;1.73;;
34783;SDS011;20998;51.388;7.032;2024-02-15T05:44:30;3.20;;;1.47;;
34783;SDS011;20998;51.388;7.032;2024-02-15T05:46:56;6.57;;;1.90;;
34783;SDS011;20998;51.388;7.032;2024-02-15T05:49:22;6.77;;;2.30;;
34783;SDS011;20998;51.388;7.032;2024-02-15T05:51:49;4.10;;;1.20;;
34783;SDS011;20998;51.388;7.032;2024-02-15T05:54:15;3.77;;;1.47;;
34783;SDS011;20998;51.388;7.032;2024-02-15T05:56:42;7.43;;;1.73;;
34783;SDS011;20998;51.388;7.032;2024-02-15T05:59:08;1.60;;;1.27;;
34783;SDS011;20998;51.388;7.032;2024-02-15T06:01:39;2.53;;;1.07;;
34783;SDS011;20998;51.388;7.032;2024-02-15T06:04:05;2.77;;;1.20;;
34783;SDS011;20998;51.388;7.032;2024-02-15T06:06:36;4.20;;;1.50;;
34783;SDS011;20998;51.388;7.032;2024-02-15T06:09:03;4.47;;;1.40;;
34783;SDS011;20998;51.388;7.032;2024-02-15T06:11:29;1.10;;;0.90;;
34783;SDS011;20998;51.388;7.032;2024-02-15T06:13:55;3.53;;;1.83;;
34783;SDS011;20998;51.388;7.032;2024-02-15T06:16:21;5.53;;;1.67;;
34783;SDS011;20998;51.388;7.032;2024-02-15T06:18:47;4.17;;;1.97;;
34783;SDS011;20998;51.388;7.032;2024-02-15T06:21:13;12.23;;;1.83;;
34783;SDS011;20998;51.388;7.032;2024-02-15T06:23:39;4.13;;;1.40;;
34783;SDS011;20998;51.388;7.032;2024-02-15T06:26:05;2.90;;;1.60;;
34783;SDS011;20998;51.388;7.032;2024-02-15T06:28:31;9.80;;;2.43;;
34783;SDS011;20998;51.388;7.032;2024-02-15T06:31:16;1.93;;;1.63;;
34783;SDS011;20998;51.388;7.032;2024-02-15T06:34:01;5.10;;;1.60;;
34783;SDS011;20998;51.388;7.032;2024-02-15T06:39:30;1.83;;;1.40;;
34783;SDS011;20998;51.388;7.032;2024-02-15T06:42:14;1.27;;;1.10;;
34783;SDS011;20998;51.388;7.032;2024-02-15T06:44:46;3.27;;;1.50;;
34783;SDS011;20998;51.388;7.032;2024-02-15T06:47:13;8.23;;;1.90;;
34783;SDS011;20998;51.388;7.032;2024-02-15T06:49:42;3.17;;;1.70;;
34783;SDS011;20998;51.388;7.032;2024-02-15T06:52:09;4.60;;;1.23;;
34783;SDS011;20998;51.388;7.032;2024-02-15T06:54:36;8.43;;;1.67;;
34783;SDS011;20998;51.388;7.032;2024-02-15T06:57:03;5.60;;;1.80;;
34783;SDS011;20998;51.388;7.032;2024-02-15T06:59:29;4.63;;;2.27;;
34783;SDS011;20998;51.388;7.032;2024-02-15T07:01:57;5.23;;;1.47;;
34783;SDS011;20998;51.388;7.032;2024-02-15T07:04:23;9.23;;;2.00;;
34783;SDS011;20998;51.388;7.032;2024-02-15T07:06:50;3.43;;;1.40;;
34783;SDS011;20998;51.388;7.032;2024-02-15T07:09:19;1.30;;;1.20;;
34783;SDS011;20998;51.388;7.032;2024-02-15T07:11:45;5.80;;;1.50;;
34783;SDS011;20998;51.388;7.032;2024-02-15T07:14:14;2.17;;;1.40;;
34783;SDS011;20998;51.388;7.032;2024-02-15T07:16:43;6.27;;;1.80;;
34783;SDS011;20998;51.388;7.032;2024-02-15T07:19:12;10.63;;;1.43;;
34783;SDS011;20998;51.388;7.032;2024-02-15T07:21:38;2.73;;;1.60;;
34783;SDS011;20998;51.388;7.032;2024-02-15T07:24:04;1.13;;;1.03;;
34783;SDS011;20998;51.388;7.032;2024-02-15T07:26:31;2.63;;;1.60;;
34783;SDS011;20998;51.388;7.032;2024-02-15T07:28:58;4.13;;;1.80;;
34783;SDS011;20998;51.388;7.032;2024-02-15T07:31:28;5.20;;;1.37;;
34783;SDS011;20998;51.388;7.032;2024-02-15T07:33:54;2.07;;;1.10;;
34783;SDS011;20998;51.388;7.032;2024-02-15T07:36:20;1.57;;;1.20;;
34783;SDS011;20998;51.388;7.032;2024-02-15T07:38:47;2.80;;;1.20;;
34783;SDS011;20998;51.388;7.032;2024-02-15T07:41:14;4.13;;;0.97;;
34783;SDS011;20998;51.388;7.032;2024-02-15T07:43:40;2.67;;;1.33;;
34783;SDS011;20998;51.388;7.032;2024-02-15T07:46:06;8.27;;;1.93;;
34783;SDS011;20998;51.388;7.032;2024-02-15T07:48:32;1.87;;;1.10;;
34783;SDS011;20998;51.388;7.032;2024-02-15T07:50:58;1.80;;;1.03;;
34783;SDS011;20998;51.388;7.032;2024-02-15T07:53:24;7.23;;;1.33;;
34783;SDS011;20998;51.388;7.032;2024-02-15T07:55:50;3.67;;;1.10;;
34783;SDS011;20998;51.388;7.032;2024-02-15T07:58:16;2.97;;;1.70;;
34783;SDS011;20998;51.388;7.032;2024-02-15T08:00:44;1.40;;;1.00;;
34783;SDS011;20998;51.388;7.032;2024-02-15T08:03:10;6.87;;;1.17;;
34783;SDS011;20998;51.388;7.032;2024-02-15T08:05:36;1.70;;;1.40;;
34783;SDS011;20998;51.388;7.032;2024-02-15T08:08:03;3.77;;;1.30;;
34783;SDS011;20998;51.388;7.032;2024-02-15T08:10:29;3.83;;;1.37;;
34783;SDS011;20998;51.388;7.032;2024-02-15T08:12:55;2.60;;;1.50;;
34783;SDS011;20998;51.388;7.032;2024-02-15T08:15:23;4.67;;;1.10;;
34783;SDS011;20998;51.388;7.032;2024-02-15T08:17:49;1.53;;;1.00;;
34783;SDS011;20998;51.388;7.032;2024-02-15T08:20:15;2.67;;;1.10;;
34783;SDS011;20998;51.388;7.032;2024-02-15T08:22:46;2.00;;;1.30;;
34783;SDS011;20998;51.388;7.032;2024-02-15T08:25:12;2.07;;;1.17;;
34783;SDS011;20998;51.388;7.032;2024-02-15T08:27:40;7.80;;;1.70;;
34783;SDS011;20998;51.388;7.032;2024-02-15T08:30:12;3.43;;;1.33;;
34783;SDS011;20998;51.388;7.032;2024-02-15T08:32:42;1.43;;;1.13;;
34783;SDS011;20998;51.388;7.032;2024-02-15T08:35:08;2.93;;;0.80;;
34783;SDS011;20998;51.388;7.032;2024-02-15T08:37:35;1.47;;;0.80;;
34783;SDS011;20998;51.388;7.032;2024-02-15T08:40:03;5.77;;;1.50;;
34783;SDS011;20998;51.388;7.032;2024-02-15T08:42:37;2.53;;;1.17;;
34783;SDS011;20998;51.388;7.032;2024-02-15T08:45:07;2.37;;;0.87;;
34783;SDS011;20998;51.388;7.032;2024-02-15T08:47:34;3.57;;;2.03;;
34783;SDS011;20998;51.388;7.032;2024-02-15T08:50:04;1.70;;;1.20;;
34783;SDS011;20998;51.388;7.032;2024-02-15T08:52:30;3.53;;;1.43;;
34783;SDS011;20998;51.388;7.032;2024-02-15T08:54:56;2.10;;;1.40;;
34783;SDS011;20998;51.388;7.032;2024-02-15T08:57:24;2.17;;;1.30;;
34783;SDS011;20998;51.388;7.032;2024-02-15T08:59:51;2.10;;;1.00;;
34783;SDS011;20998;51.388;7.032;2024-02-15T09:02:17;4.03;;;1.30;;
34783;SDS011;20998;51.388;7.032;2024-02-15T09:04:43;2.20;;;1.23;;
34783;SDS011;20998;51.388;7.032;2024-02-15T09:07:10;1.93;;;0.90;;
34783;SDS011;20998;51.388;7.032;2024-02-15T09:09:36;1.87;;;1.10;;
34783;SDS011;20998;51.388;7.032;2024-02-15T09:12:02;3.57;;;1.30;;
34783;SDS011;20998;51.388;7.032;2024-02-15T09:14:34;1.57;;;1.17;;
34783;SDS011;20998;51.388;7.032;2024-02-15T09:17:04;1.80;;;0.93;;
34783;SDS011;20998;51.388;7.032;2024-02-15T09:19:34;1.73;;;1.20;;
34783;SDS011;20998;51.388;7.032;2024-02-15T09:22:00;0.97;;;0.93;;
34783;SDS011;20998;51.388;7.032;2024-02-15T09:24:29;3.03;;;1.07;;
34783;SDS011;20998;51.388;7.032;2024-02-15T09:26:55;1.87;;;1.40;;
34783;SDS011;20998;51.388;7.032;2024-02-15T09:29:22;1.03;;;0.93;;
34783;SDS011;20998;51.388;7.032;2024-02-15T09:31:49;6.60;;;1.73;;
34783;SDS011;20998;51.388;7.032;2024-02-15T09:34:15;5.80;;;0.90;;
34783;SDS011;20998;51.388;7.032;2024-02-15T09:36:41;2.30;;;1.17;;
34783;SDS011;20998;51.388;7.032;2024-02-15T09:39:07;1.50;;;1.13;;
34783;SDS011;20998;51.388;7.032;2024-02-15T09:41:33;6.50;;;1.30;;
34783;SDS011;20998;51.388;7.032;2024-02-15T09:43:59;1.33;;;1.03;;
34783;SDS011;20998;51.388;7.032;2024-02-15T09:46:26;1.33;;;0.83;;
34783;SDS011;20998;51.388;7.032;2024-02-15T09:48:53;7.10;;;1.17;;
34783;SDS011;20998;51.388;7.032;2024-02-15T09:51:25;6.00;;;2.03;;
34783;SDS011;20998;51.388;7.032;2024-02-15T09:53:52;3.60;;;1.97;;
34783;SDS011;20998;51.388;7.032;2024-02-15T09:56:19;3.13;;;1.30;;
34783;SDS011;20998;51.388;7.032;2024-02-15T09:58:49;1.10;;;0.87;;
34783;SDS011;20998;51.388;7.032;2024-02-15T10:01:15;3.40;;;1.40;;
34783;SDS011;20998;51.388;7.032;2024-02-15T10:03:47;1.60;;;1.23;;
34783;SDS011;20998;51.388;7.032;2024-02-15T10:06:18;1.67;;;1.40;;
34783;SDS011;20998;51.388;7.032;2024-02-15T10:08:45;5.70;;;1.17;;
34783;SDS011;20998;51.388;7.032;2024-02-15T10:11:12;6.37;;;1.60;;
34783;SDS011;20998;51.388;7.032;2024-02-15T10:13:38;2.90;;;1.13;;
34783;SDS011;20998;51.388;7.032;2024-02-15T10:16:18;1.63;;;1.03;;
34783;SDS011;20998;51.388;7.032;2024-02-15T10:18:44;3.30;;;1.30;;
34783;SDS011;20998;51.388;7.032;2024-02-15T10:21:23;1.50;;;1.03;;
34783;SDS011;20998;51.388;7.032;2024-02-15T10:24:03;3.63;;;1.40;;
34783;SDS011;20998;51.388;7.032;2024-02-15T10:26:33;2.20;;;1.40;;
34783;SDS011;20998;51.388;7.032;2024-02-15T10:29:06;1.87;;;1.00;;
34783;SDS011;20998;51.388;7.032;2024-02-15T10:31:34;2.27;;;1.07;;
34783;SDS011;20998;51.388;7.032;2024-02-15T10:34:04;2.07;;;1.60;;
34783;SDS011;20998;51.388;7.032;2024-02-15T10:36:31;3.27;;;1.40;;
34783;SDS011;20998;51.388;7.032;2024-02-15T10:39:15;1.57;;;1.10;;
34783;SDS011;20998;51.388;7.032;2024-02-15T10:41:49;2.30;;;1.10;;
34783;SDS011;20998;51.388;7.032;2024-02-15T10:44:17;1.37;;;0.97;;
34783;SDS011;20998;51.388;7.032;2024-02-15T10:46:49;1.67;;;1.07;;
34783;SDS011;20998;51.388;7.032;2024-02-15T10:49:20;1.97;;;0.97;;
34783;SDS011;20998;51.388;7.032;2024-02-15T10:51:57;2.30;;;0.87;;
34783;SDS011;20998;51.388;7.032;2024-02-15T10:57:04;1.17;;;1.17;;
34783;SDS011;20998;51.388;7.032;2024-02-15T10:59:34;1.23;;;0.87;;
34783;SDS011;20998;51.388;7.032;2024-02-15T11:02:03;4.47;;;1.20;;
34783;SDS011;20998;51.388;7.032;2024-02-15T11:04:48;2.53;;;1.20;;
34783;SDS011;20998;51.388;7.032;2024-02-15T11:07:22;3.90;;;1.10;;
34783;SDS011;20998;51.388;7.032;2024-02-15T11:09:50;3.23;;;1.90;;
34783;SDS011;20998;51.388;7.032;2024-02-15T11:12:16;3.43;;;1.50;;
34783;SDS011;20998;51.388;7.032;2024-02-15T11:14:46;1.20;;;0.93;;
34783;SDS011;20998;51.388;7.032;2024-02-15T11:17:12;1.63;;;1.13;;
34783;SDS011;20998;51.388;7.032;2024-02-15T11:20:10;4.83;;;1.20;;
34783;SDS011;20998;51.388;7.032;2024-02-15T11:22:38;10.00;;;1.00;;
34783;SDS011;20998;51.388;7.032;2024-02-15T11:25:07;1.57;;;1.17;;
34783;SDS011;20998;51.388;7.032;2024-02-15T11:27:34;0.77;;;0.70;;
34783;SDS011;20998;51.388;7.032;2024-02-15T11:30:02;2.63;;;0.90;;
34783;SDS011;20998;51.388;7.032;2024-02-15T11:35:09;0.70;;;0.67;;
34783;SDS011;20998;51.388;7.032;2024-02-15T11:40:25;3.70;;;1.27;;
34783;SDS011;20998;51.388;7.032;2024-02-15T11:43:07;4.10;;;1.37;;
34783;SDS011;20998;51.388;7.032;2024-02-15T11:45:34;3.80;;;1.10;;
34783;SDS011;20998;51.388;7.032;2024-02-15T11:48:09;1.23;;;0.83;;
34783;SDS011;20998;51.388;7.032;2024-02-15T11:50:37;3.13;;;1.03;;
34783;SDS011;20998;51.388;7.032;2024-02-15T11:53:04;2.13;;;0.80;;
34783;SDS011;20998;51.388;7.032;2024-02-15T11:55:34;1.23;;;0.60;;
34783;SDS011;20998;51.388;7.032;2024-02-15T11:58:01;0.97;;;0.87;;
34783;SDS011;20998;51.388;7.032;2024-02-15T12:00:41;1.50;;;1.10;;
34783;SDS011;20998;51.388;7.032;2024-02-15T12:03:26;5.90;;;0.73;;
34783;SDS011;20998;51.388;7.032;2024-02-15T12:06:11;1.73;;;0.93;;
34783;SDS011;20998;51.388;7.032;2024-02-15T12:08:56;0.80;;;0.80;;
34783;SDS011;20998;51.388;7.032;2024-02-15T12:11:40;2.47;;;0.60;;
34783;SDS011;20998;51.388;7.032;2024-02-15T12:14:25;1.17;;;0.90;;
34783;SDS011;20998;51.388;7.032;2024-02-15T12:17:10;0.60;;;0.60;;
34783;SDS011;20998;51.388;7.032;2024-02-15T12:19:56;3.27;;;0.90;;
34783;SDS011;20998;51.388;7.032;2024-02-15T12:22:26;1.90;;;0.90;;
34783;SDS011;20998;51.388;7.032;2024-02-15T12:24:56;1.40;;;0.80;;
34783;SDS011;20998;51.388;7.032;2024-02-15T12:27:22;1.43;;;1.00;;
34783;SDS011;20998;51.388;7.032;2024-02-15T12:29:55;1.30;;;1.10;;
34783;SDS011;20998;51.388;7.032;2024-02-15T12:32:23;1.33;;;0.90;;
34783;SDS011;20998;51.388;7.032;2024-02-15T12:34:49;1.63;;;0.90;;
34783;SDS011;20998;51.388;7.032;2024-02-15T12:37:17;3.03;;;0.90;;
34783;SDS011;20998;51.388;7.032;2024-02-15T12:39:45;2.83;;;1.17;;
34783;SDS011;20998;51.388;7.032;2024-02-15T12:42:11;0.73;;;0.73;;
34783;SDS011;20998;51.388;7.032;2024-02-15T12:44:41;1.03;;;0.60;;
34783;SDS011;20998;51.388;7.032;2024-02-15T12:47:18;5.83;;;1.53;;
34783;SDS011;20998;51.388;7.032;2024-02-15T12:49:45;1.33;;;0.70;;
34783;SDS011;20998;51.388;7.032;2024-02-15T12:52:32;2.60;;;0.87;;
34783;SDS011;20998;51.388;7.032;2024-02-15T12:55:11;1.37;;;0.60;;
34783;SDS011;20998;51.388;7.032;2024-02-15T12:57:37;0.73;;;0.70;;
34783;SDS011;20998;51.388;7.032;2024-02-15T13:00:10;3.63;;;0.60;;
34783;SDS011;20998;51.388;7.032;2024-02-15T13:02:37;3.30;;;1.10;;
34783;SDS011;20998;51.388;7.032;2024-02-15T13:05:03;1.43;;;0.90;;
34783;SDS011;20998;51.388;7.032;2024-02-15T13:07:29;2.83;;;1.20;;
34783;SDS011;20998;51.388;7.032;2024-02-15T13:09:56;3.83;;;1.10;;
34783;SDS011;20998;51.388;7.032;2024-02-15T13:12:22;2.13;;;0.80;;
34783;SDS011;20998;51.388;7.032;2024-02-15T13:14:48;1.90;;;1.20;;
34783;SDS011;20998;51.388;7.032;2024-02-15T13:17:15;1.03;;;0.93;;
34783;SDS011;20998;51.388;7.032;2024-02-15T13:19:48;3.43;;;0.70;;
34783;SDS011;20998;51.388;7.032;2024-02-15T13:22:14;2.67;;;1.33;;
34783;SDS011;20998;51.388;7.032;2024-02-15T13:24:46;4.37;;;0.87;;
34783;SDS011;20998;51.388;7.032;2024-02-15T13:27:12;1.87;;;0.90;;
34783;SDS011;20998;51.388;7.032;2024-02-15T13:29:38;2.97;;;0.87;;
34783;SDS011;20998;51.388;7.032;2024-02-15T13:32:06;3.83;;;1.07;;
34783;SDS011;20998;51.388;7.032;2024-02-15T13:34:32;4.07;;;0.70;;
34783;SDS011;20998;51.388;7.032;2024-02-15T13:36:58;1.60;;;0.80;;
34783;SDS011;20998;51.388;7.032;2024-02-15T13:39:27;2.67;;;0.90;;
34783;SDS011;20998;51.388;7.032;2024-02-15T13:41:58;2.30;;;0.83;;
34783;SDS011;20998;51.388;7.032;2024-02-15T13:44:24;2.33;;;1.23;;
34783;SDS011;20998;51.388;7.032;2024-02-15T13:46:50;0.77;;;0.73;;
34783;SDS011;20998;51.388;7.032;2024-02-15T13:49:16;2.83;;;0.93;;
34783;SDS011;20998;51.388;7.032;2024-02-15T13:51:42;1.80;;;0.90;;
34783;SDS011;20998;51.388;7.032;2024-02-15T13:54:08;1.50;;;0.80;;
34783;SDS011;20998;51.388;7.032;2024-02-15T13:56:34;3.70;;;1.10;;
34783;SDS011;20998;51.388;7.032;2024-02-15T13:59:00;0.87;;;0.87;;
34783;SDS011;20998;51.388;7.032;2024-02-15T14:01:26;1.07;;;0.70;;
34783;SDS011;20998;51.388;7.032;2024-02-15T14:03:53;0.90;;;0.73;;
34783;SDS011;20998;51.388;7.032;2024-02-15T14:06:20;7.23;;;0.73;;
34783;SDS011;20998;51.388;7.032;2024-02-15T14:08:46;0.90;;;0.80;;
34783;SDS011;20998;51.388;7.032;2024-02-15T14:11:12;1.93;;;1.20;;
34783;SDS011;20998;51.388;7.032;2024-02-15T14:13:39;2.73;;;1.23;;
34783;SDS011;20998;51.388;7.032;2024-02-15T14:16:06;2.00;;;0.90;;
34783;SDS011;20998;51.388;7.032;2024-02-15T14:18:33;1.47;;;0.83;;
34783;SDS011;20998;51.388;7.032;2024-02-15T14:20:59;3.03;;;0.77;;
34783;SDS011;20998;51.388;7.032;2024-02-15T14:23:25;2.07;;;1.23;;
34783;SDS011;20998;51.388;7.032;2024-02-15T14:25:52;1.83;;;1.03;;
34783;SDS011;20998;51.388;7.032;2024-02-15T14:28:25;0.93;;;0.60;;
34783;SDS011;20998;51.388;7.032;2024-02-15T14:30:51;2.03;;;1.00;;
34783;SDS011;20998;51.388;7.032;2024-02-15T14:33:35;4.73;;;0.73;;
34783;SDS011;20998;51.388;7.032;2024-02-15T14:36:02;3.33;;;0.70;;
34783;SDS011;20998;51.388;7.032;2024-02-15T14:38:28;0.87;;;0.80;;
34783;SDS011;20998;51.388;7.032;2024-02-15T14:40:54;1.40;;;0.90;;
34783;SDS011;20998;51.388;7.032;2024-02-15T14:43:22;2.53;;;1.13;;
34783;SDS011;20998;51.388;7.032;2024-02-15T14:45:50;1.20;;;1.03;;
34783;SDS011;20998;51.388;7.032;2024-02-15T14:48:16;2.03;;;0.90;;
34783;SDS011;20998;51.388;7.032;2024-02-15T14:50:43;1.40;;;0.90;;
34783;SDS011;20998;51.388;7.032;2024-02-15T14:53:09;2.13;;;1.10;;
34783;SDS011;20998;51.388;7.032;2024-02-15T14:55:36;9.60;;;1.23;;
34783;SDS011;20998;51.388;7.032;2024-02-15T14:58:08;0.93;;;0.87;;
34783;SDS011;20998;51.388;7.032;2024-02-15T15:00:34;1.10;;;1.00;;
34783;SDS011;20998;51.388;7.032;2024-02-15T15:03:02;1.43;;;0.90;;
34783;SDS011;20998;51.388;7.032;2024-02-15T15:05:28;1.00;;;0.90;;